Back to Top

Language: 

My Weather Underground Personal Weather Station Historical Data with Graphs...

Delerius Weather Station Historical Data
Daily Summary for September 5, 2017 Units:  Metric    English   Both
« Previous Day
Next Day »
Daily Weekly Monthly Yearly Custom
  High: Low: Average:
Temperature: 19.4 °C 10.9 °C 16.4 °C
Dew Point: 16.6 °C 9.7 °C 14.4 °C
Humidity: 96 % 77 % 88 %
Wind Speed: 20.9 km/h 0 km/h 8.4 km/h
Wind Gust: 40.2 km/h - -
Wind:- - SW
Pressure: 1013.8 hPa 1008.7 hPa -
Precipitation: 4.83 mm    
Historical Graphs
 
 
Tabular Data for September 5, 2017
Time Temperature Dew Point Pressure Wind Wind Speed Wind Gust Humidity Rainfall Rate (Hourly) solar Conditions
00:00 18.1 °C 15.7 °C 1011.1 hPa Calm     86 % 0 mm 0 W/m2
00:05 18 °C 15.6 °C 1011.1 hPa Calm     86 % 0 mm 0 W/m2
00:10 18 °C 15.6 °C 1011.1 hPa Calm   1.6 km/h 86 % 0 mm 0 W/m2
00:15 18 °C 15.8 °C 1011.1 hPa Calm   3.2 km/h 87 % 0 mm 0 W/m2
00:20 18 °C 15.8 °C 1011.1 hPa Calm   6.4 km/h 87 % 0 mm 0 W/m2
00:25 17.9 °C 15.7 °C 1011.1 hPa SSW 3.2 km/h 9.7 km/h 87 % 0 mm 0 W/m2
00:30 17.9 °C 15.7 °C 1010.7 hPa South 4.8 km/h 11.3 km/h 87 % 0 mm 0 W/m2
00:35 17.9 °C 15.7 °C 1011.1 hPa SSE 4.8 km/h 11.3 km/h 87 % 0 mm 0 W/m2
00:40 17.9 °C 15.7 °C 1011.1 hPa South 4.8 km/h 9.7 km/h 87 % 0 mm 0 W/m2
00:45 17.9 °C 15.7 °C 1011.1 hPa South 1.6 km/h 9.7 km/h 87 % 0 mm 0 W/m2
00:50 17.9 °C 15.7 °C 1011.1 hPa South 3.2 km/h 8 km/h 87 % 0 mm 0 W/m2
00:55 17.9 °C 15.7 °C 1011.1 hPa South 1.6 km/h 8 km/h 87 % 0 mm 0 W/m2
01:00 17.9 °C 15.7 °C 1011.1 hPa Calm   1.6 km/h 87 % 0 mm 0 W/m2
01:04 17.9 °C 15.7 °C 1010.7 hPa Calm     87 % 0 mm 0 W/m2
01:09 17.9 °C 15.7 °C 1010.7 hPa Calm     87 % 0 mm 0 W/m2
01:14 17.8 °C 15.6 °C 1010.7 hPa Calm     87 % 0 mm 0 W/m2
01:19 17.8 °C 15.6 °C 1010.7 hPa Calm     87 % 0 mm 0 W/m2
01:24 17.8 °C 15.8 °C 1010.7 hPa Calm   1.6 km/h 88 % 0 mm 0 W/m2
01:29 17.8 °C 15.8 °C 1010.7 hPa Calm   3.2 km/h 88 % 0 mm 0 W/m2
01:34 17.7 °C 15.7 °C 1010.7 hPa South 1.6 km/h 8 km/h 88 % 0 mm 0 W/m2
01:39 17.7 °C 15.7 °C 1010.7 hPa South 3.2 km/h 9.7 km/h 88 % 0 mm 0 W/m2
01:44 17.7 °C 15.7 °C 1010.7 hPa South 3.2 km/h 9.7 km/h 88 % 0 mm 0 W/m2
01:49 17.7 °C 15.7 °C 1010.7 hPa SSW 4.8 km/h 11.3 km/h 88 % 0 mm 0 W/m2
01:54 17.7 °C 15.7 °C 1010.7 hPa South 6.4 km/h 14.5 km/h 88 % 0 mm 0 W/m2
01:59 17.7 °C 15.7 °C 1010.7 hPa South 3.2 km/h 14.5 km/h 88 % 0 mm 0 W/m2
02:04 17.7 °C 15.7 °C 1010.7 hPa SSW 3.2 km/h 11.3 km/h 88 % 0 mm 0 W/m2
02:09 17.7 °C 15.7 °C 1010.7 hPa SW 3.2 km/h 11.3 km/h 88 % 0 mm 0 W/m2
02:14 17.6 °C 15.4 °C 1010.7 hPa SSW 3.2 km/h 9.7 km/h 87 % 0 mm 0 W/m2
02:19 17.6 °C 15.4 °C 1010.7 hPa SSW 3.2 km/h 9.7 km/h 87 % 0 mm 0 W/m2
02:24 17.6 °C 15.4 °C 1010.4 hPa SSW 4.8 km/h 9.7 km/h 87 % 0 mm 0 W/m2
02:29 17.6 °C 15.4 °C 1010.4 hPa SW 6.4 km/h 11.3 km/h 87 % 0 mm 0 W/m2
02:34 17.6 °C 15.4 °C 1010.4 hPa SW 8 km/h 14.5 km/h 87 % 0 mm 0 W/m2
02:39 17.6 °C 15.4 °C 1010.4 hPa SW 8 km/h 14.5 km/h 87 % 0 mm 0 W/m2
02:44 17.6 °C 15.4 °C 1010.4 hPa SW 6.4 km/h 11.3 km/h 87 % 0 mm 0 W/m2
02:49 17.6 °C 15.4 °C 1010 hPa SSW 6.4 km/h 11.3 km/h 87 % 0 mm 0 W/m2
02:54 17.5 °C 15.3 °C 1010 hPa SSW 3.2 km/h 11.3 km/h 87 % 0 mm 0 W/m2
02:59 17.5 °C 15.3 °C 1010 hPa SSE 3.2 km/h 12.9 km/h 87 % 0 mm 0 W/m2
03:04 17.4 °C 15.2 °C 1010 hPa SSE 6.4 km/h 12.9 km/h 87 % 0 mm 0 W/m2
03:09 17.4 °C 15.4 °C 1010 hPa SSE 8 km/h 12.9 km/h 88 % 0 mm 0 W/m2
03:14 17.4 °C 15.4 °C 1010 hPa SSE 8 km/h 14.5 km/h 88 % 0 mm 0 W/m2
03:19 17.3 °C 15.3 °C 1010 hPa South 6.4 km/h 14.5 km/h 88 % 0 mm 0 W/m2
03:24 17.3 °C 15.3 °C 1010 hPa South 6.4 km/h 14.5 km/h 88 % 0 mm 0 W/m2
03:29 17.3 °C 15.3 °C 1010 hPa South 4.8 km/h 11.3 km/h 88 % 0 mm 0 W/m2
03:34 17.2 °C 15.2 °C 1010 hPa South 3.2 km/h 9.7 km/h 88 % 0 mm 0 W/m2
03:35 17.2 °C 15.2 °C 1010 hPa South 3.2 km/h 9.7 km/h 88 % 0 mm 0 W/m2
03:40 17.2 °C 15.2 °C 1010 hPa South 4.8 km/h 12.9 km/h 88 % 0 mm 0 W/m2
03:45 17.2 °C 15.2 °C 1010 hPa SSW 6.4 km/h 12.9 km/h 88 % 0 mm 0 W/m2
03:50 17.2 °C 15.4 °C 1010 hPa SSW 4.8 km/h 12.9 km/h 89 % 0 mm 0 W/m2
03:55 17.1 °C 15.3 °C 1010 hPa SSW 3.2 km/h 11.3 km/h 89 % 0 mm 0 W/m2
04:00 17.1 °C 15.3 °C 1010 hPa SSW 3.2 km/h 11.3 km/h 89 % 0 mm 0 W/m2
04:05 17.1 °C 15.3 °C 1009.7 hPa SSW 1.6 km/h 8 km/h 89 % 0 mm 0 W/m2
04:10 17.1 °C 15.3 °C 1010 hPa SSW 1.6 km/h 8 km/h 89 % 0 mm 0 W/m2
04:15 17.1 °C 15.3 °C 1010 hPa WSW 4.8 km/h 16.1 km/h 89 % 0 mm 0 W/m2
04:20 17.1 °C 15.3 °C 1009.7 hPa WSW 9.7 km/h 19.3 km/h 89 % 0 mm 0 W/m2
04:23 17.1 °C 15.3 °C 1009.7 hPa SW 8 km/h 19.3 km/h 89 % 0 mm 0 W/m2
04:27 17.1 °C 15.3 °C 1009.7 hPa SW 8 km/h 19.3 km/h 89 % 0 mm 0 W/m2
04:32 17.1 °C 15.3 °C 1009.7 hPa SW 6.4 km/h 12.9 km/h 89 % 0 mm 0 W/m2
04:37 17 °C 15.2 °C 1009.7 hPa SW 8 km/h 12.9 km/h 89 % 0 mm 0 W/m2
04:42 17 °C 15.2 °C 1009.7 hPa WSW 8 km/h 14.5 km/h 89 % 0 mm 0 W/m2
04:47 17 °C 15.2 °C 1009.7 hPa WSW 9.7 km/h 16.1 km/h 89 % 0 mm 0 W/m2
04:52 17.1 °C 15.3 °C 1009.4 hPa SW 8 km/h 16.1 km/h 89 % 0 mm 0 W/m2
04:57 17 °C 15.2 °C 1009.4 hPa SSW 6.4 km/h 12.9 km/h 89 % 0 mm 0 W/m2
05:02 17 °C 15.2 °C 1009.4 hPa SSW 6.4 km/h 12.9 km/h 89 % 0 mm 0 W/m2
05:07 17 °C 15.2 °C 1009.4 hPa SSW 8 km/h 12.9 km/h 89 % 0 mm 0 W/m2
05:12 17 °C 15.2 °C 1009.4 hPa SSW 8 km/h 12.9 km/h 89 % 0 mm 0 W/m2
05:17 17 °C 15.2 °C 1009.4 hPa SW 6.4 km/h 16.1 km/h 89 % 0 mm 0 W/m2
05:22 17 °C 15.2 °C 1009.4 hPa South 4.8 km/h 16.1 km/h 89 % 0 mm 0 W/m2
05:27 16.9 °C 15.2 °C 1009.4 hPa SE 4.8 km/h 8 km/h 90 % 0 mm 0 W/m2
05:32 16.9 °C 15.2 °C 1009.4 hPa SE 4.8 km/h 8 km/h 90 % 0 mm 0 W/m2
05:37 16.9 °C 15.2 °C 1009.7 hPa SSE 3.2 km/h 8 km/h 90 % 0 mm 0 W/m2
05:42 16.9 °C 15.4 °C 1009.4 hPa South 3.2 km/h 11.3 km/h 91 % 0.25 mm 0 W/m2
05:47 16.8 °C 15.3 °C 1009.4 hPa SSW 4.8 km/h 12.9 km/h 91 % 0.51 mm 0 W/m2
05:52 16.8 °C 15.5 °C 1009.4 hPa SSW 6.4 km/h 12.9 km/h 92 % 0.76 mm 0 W/m2
05:55 16.7 °C 15.4 °C 1009.4 hPa SSW 6.4 km/h 12.9 km/h 92 % 1.02 mm 0 W/m2
06:00 16.6 °C 15.3 °C 1009.4 hPa SSW 4.8 km/h 12.9 km/h 92 % 1.52 mm 0 W/m2
06:05 16.6 °C 15.4 °C 1009.4 hPa SSW 3.2 km/h 12.9 km/h 93 % 1.52 mm 0 W/m2
06:10 16.5 °C 15.4 °C 1009.4 hPa Calm   3.2 km/h 93 % 1.78 mm 0 W/m2
06:15 16.4 °C 15.3 °C 1009.4 hPa Calm   1.6 km/h 93 % 2.03 mm 0 W/m2
06:20 16.4 °C 15.4 °C 1009.4 hPa Calm   3.2 km/h 94 % 2.29 mm 0 W/m2
06:25 16.4 °C 15.4 °C 1009.4 hPa SW 1.6 km/h 6.4 km/h 94 % 2.29 mm 0 W/m2
06:30 16.3 °C 15.3 °C 1009.4 hPa South 3.2 km/h 11.3 km/h 94 % 2.54 mm 0 W/m2
06:35 16.3 °C 15.3 °C 1009 hPa SSE 4.8 km/h 11.3 km/h 94 % 2.54 mm 0 W/m2
06:40 16.3 °C 15.3 °C 1009 hPa SSE 4.8 km/h 11.3 km/h 94 % 2.54 mm 0 W/m2
06:45 16.2 °C 15.2 °C 1009 hPa SSE 6.4 km/h 14.5 km/h 94 % 2.29 mm 0 W/m2
06:50 16.2 °C 15.2 °C 1009.4 hPa SSE 8 km/h 16.1 km/h 94 % 2.29 mm 0 W/m2
06:55 16.2 °C 15.4 °C 1009.4 hPa SSE 8 km/h 16.1 km/h 95 % 2.03 mm 0 W/m2
07:00 16.1 °C 15.3 °C 1009 hPa SSE 6.4 km/h 12.9 km/h 95 % 1.52 mm 0 W/m2
07:05 16.1 °C 15.3 °C 1009 hPa South 6.4 km/h 11.3 km/h 95 % 1.52 mm 5 W/m2
07:10 16.1 °C 15.3 °C 1009 hPa SSE 6.4 km/h 11.3 km/h 95 % 1.27 mm 5 W/m2
07:15 16.1 °C 15.3 °C 1009 hPa SSE 6.4 km/h 11.3 km/h 95 % 1.02 mm 5 W/m2
07:20 16.1 °C 15.3 °C 1009 hPa South 6.4 km/h 16.1 km/h 95 % 0.76 mm 9 W/m2
07:25 16.1 °C 15.3 °C 1009 hPa South 6.4 km/h 16.1 km/h 95 % 0.51 mm 9 W/m2
07:30 16.1 °C 15.3 °C 1009 hPa South 6.4 km/h 14.5 km/h 95 % 0.51 mm 7 W/m2
07:35 16.1 °C 15.3 °C 1009 hPa South 8 km/h 16.1 km/h 95 % 0.51 mm 7 W/m2
07:40 16.1 °C 15.3 °C 1009 hPa South 8 km/h 16.1 km/h 95 % 0.51 mm 7 W/m2
07:45 16.1 °C 15.3 °C 1009 hPa SSW 8 km/h 19.3 km/h 95 % 0.51 mm 5 W/m2
07:50 16.1 °C 15.3 °C 1009 hPa South 9.7 km/h 19.3 km/h 95 % 0.76 mm 5 W/m2
07:55 16.1 °C 15.3 °C 1009.4 hPa South 11.3 km/h 19.3 km/h 95 % 1.02 mm 7 W/m2
08:01 16.1 °C 15.3 °C 1009 hPa SSW 9.7 km/h 19.3 km/h 95 % 1.02 mm 11 W/m2
08:06 16.1 °C 15.3 °C 1009 hPa SSW 8 km/h 14.5 km/h 95 % 1.02 mm 11 W/m2
08:11 16.1 °C 15.3 °C 1009.4 hPa SSW 6.4 km/h 14.5 km/h 95 % 1.27 mm 12 W/m2
08:16 16.1 °C 15.3 °C 1009.4 hPa SSW 8 km/h 16.1 km/h 95 % 1.27 mm 14 W/m2
08:21 16.1 °C 15.3 °C 1009.4 hPa SSW 8 km/h 16.1 km/h 95 % 1.27 mm 14 W/m2
08:26 16.1 °C 15.3 °C 1009.4 hPa SSW 8 km/h 14.5 km/h 95 % 1.27 mm 16 W/m2
08:31 16.1 °C 15.3 °C 1009.4 hPa SSW 8 km/h 16.1 km/h 95 % 1.27 mm 16 W/m2
08:36 16.1 °C 15.3 °C 1009 hPa SSW 8 km/h 16.1 km/h 95 % 1.27 mm 18 W/m2
08:41 16.1 °C 15.3 °C 1009 hPa SSW 8 km/h 16.1 km/h 95 % 1.52 mm 21 W/m2
08:46 16.1 °C 15.3 °C 1009 hPa SSW 6.4 km/h 16.1 km/h 95 % 1.02 mm 37 W/m2
08:51 16.1 °C 15.3 °C 1009 hPa SSW 4.8 km/h 11.3 km/h 95 % 1.02 mm 39 W/m2
08:56 16.1 °C 15.3 °C 1009 hPa SSW 6.4 km/h 11.3 km/h 95 % 0.76 mm 44 W/m2
09:01 16.1 °C 15.3 °C 1009 hPa South 6.4 km/h 11.3 km/h 95 % 0.76 mm 49 W/m2
09:06 16.2 °C 15.6 °C 1009 hPa SSE 6.4 km/h 14.5 km/h 96 % 0.76 mm 42 W/m2
09:11 16.2 °C 15.6 °C 1009 hPa SSE 6.4 km/h 14.5 km/h 96 % 0.51 mm 35 W/m2
09:16 16.2 °C 15.6 °C 1009 hPa SSE 8 km/h 12.9 km/h 96 % 0.51 mm 35 W/m2
09:21 16.2 °C 15.4 °C 1009 hPa SSE 6.4 km/h 12.9 km/h 95 % 0.51 mm 35 W/m2
09:26 16.2 °C 15.6 °C 1009 hPa South 6.4 km/h 12.9 km/h 96 % 0.51 mm 46 W/m2
09:31 16.2 °C 15.6 °C 1009 hPa South 8 km/h 16.1 km/h 96 % 0.51 mm 62 W/m2
09:37 16.3 °C 15.7 °C 1009 hPa South 8 km/h 19.3 km/h 96 % 0.51 mm 79 W/m2
09:41 16.3 °C 15.7 °C 1009 hPa SSW 8 km/h 19.3 km/h 96 % 0.25 mm 77 W/m2
09:47 16.4 °C 15.8 °C 1009 hPa SSW 8 km/h 16.1 km/h 96 % 0.25 mm 116 W/m2
09:52 16.4 °C 15.8 °C 1009 hPa South 6.4 km/h 14.5 km/h 96 % 0 mm 121 W/m2
09:57 16.5 °C 15.8 °C 1009 hPa South 6.4 km/h 12.9 km/h 96 % 0 mm 84 W/m2
09:58 16.6 °C 15.9 °C 1009 hPa South 4.8 km/h 12.9 km/h 96 % 0 mm 77 W/m2
10:03 16.6 °C 15.9 °C 1009 hPa South 3.2 km/h 12.9 km/h 96 % 0 mm 77 W/m2
10:08 16.7 °C 16.1 °C 1009 hPa South 3.2 km/h 12.9 km/h 96 % 0 mm 81 W/m2
10:13 16.7 °C 16.1 °C 1009 hPa South 4.8 km/h 12.9 km/h 96 % 0 mm 72 W/m2
10:18 16.8 °C 16.2 °C 1009 hPa SSW 8 km/h 14.5 km/h 96 % 0 mm 72 W/m2
10:23 16.8 °C 16.2 °C 1009 hPa SW 9.7 km/h 14.5 km/h 96 % 0 mm 74 W/m2
10:28 16.9 °C 16.3 °C 1009 hPa SW 9.7 km/h 14.5 km/h 96 % 0 mm 95 W/m2
10:33 16.9 °C 16.3 °C 1009 hPa SSW 9.7 km/h 14.5 km/h 96 % 0 mm 100 W/m2
10:38 17 °C 16.3 °C 1009 hPa SSW 9.7 km/h 14.5 km/h 96 % 0 mm 121 W/m2
10:43 17 °C 16.3 °C 1008.7 hPa SW 8 km/h 14.5 km/h 96 % 0 mm 151 W/m2
10:48 17.1 °C 16.3 °C 1009 hPa SW 8 km/h 14.5 km/h 95 % 0 mm 134 W/m2
10:53 17.1 °C 16.3 °C 1009 hPa SSW 9.7 km/h 16.1 km/h 95 % 0 mm 118 W/m2
10:58 17.1 °C 16.3 °C 1009 hPa SSW 11.3 km/h 20.9 km/h 95 % 0 mm 155 W/m2
11:03 17.1 °C 16.1 °C 1009 hPa SW 11.3 km/h 20.9 km/h 94 % 0 mm 199 W/m2
11:08 17.1 °C 16.1 °C 1009 hPa SW 11.3 km/h 19.3 km/h 94 % 0 mm 156 W/m2
11:13 17.2 °C 16.2 °C 1009 hPa SW 11.3 km/h 19.3 km/h 94 % 0 mm 163 W/m2
11:18 17.2 °C 16.1 °C 1009 hPa SW 11.3 km/h 19.3 km/h 93 % 0 mm 144 W/m2
11:23 17.3 °C 16.2 °C 1009 hPa SW 11.3 km/h 19.3 km/h 93 % 0 mm 153 W/m2
11:28 17.3 °C 16.2 °C 1009 hPa SSW 12.9 km/h 25.7 km/h 93 % 0 mm 213 W/m2
11:33 17.4 °C 16.3 °C 1009 hPa SW 14.5 km/h 25.7 km/h 93 % 0 mm 348 W/m2
11:38 17.6 °C 16.4 °C 1009 hPa SW 11.3 km/h 20.9 km/h 93 % 0 mm 223 W/m2
11:43 17.6 °C 16.1 °C 1009 hPa SW 12.9 km/h 19.3 km/h 91 % 0 mm 139 W/m2
11:48 17.6 °C 16.1 °C 1009 hPa SW 12.9 km/h 24.1 km/h 91 % 0 mm 185 W/m2
11:53 17.6 °C 15.9 °C 1009 hPa SW 12.9 km/h 24.1 km/h 90 % 0 mm 230 W/m2
11:58 17.6 °C 16.1 °C 1008.7 hPa SW 11.3 km/h 20.9 km/h 91 % 0 mm 223 W/m2
12:03 17.7 °C 16.2 °C 1009 hPa SW 11.3 km/h 19.3 km/h 91 % 0 mm 272 W/m2
12:08 17.8 °C 16.1 °C 1009 hPa SW 12.9 km/h 22.5 km/h 90 % 0 mm 288 W/m2
12:13 17.8 °C 16.1 °C 1009 hPa SW 12.9 km/h 24.1 km/h 90 % 0 mm 218 W/m2
12:18 17.8 °C 16.1 °C 1009 hPa SW 14.5 km/h 24.1 km/h 90 % 0 mm 188 W/m2
12:24 17.8 °C 16.1 °C 1009 hPa SSW 16.1 km/h 25.7 km/h 90 % 0 mm 243 W/m2
12:29 17.8 °C 16.3 °C 1009 hPa SSW 16.1 km/h 30.6 km/h 91 % 0 mm 301 W/m2
12:34 17.8 °C 16.3 °C 1009 hPa SSW 14.5 km/h 30.6 km/h 91 % 0 mm 297 W/m2
12:39 17.9 °C 16.6 °C 1009 hPa SW 11.3 km/h 20.9 km/h 92 % 0 mm 269 W/m2
12:44 17.9 °C 16.4 °C 1009 hPa SSW 11.3 km/h 20.9 km/h 91 % 0 mm 221 W/m2
12:49 17.9 °C 16.2 °C 1009 hPa SSW 12.9 km/h 20.9 km/h 90 % 0 mm 283 W/m2
12:54 18 °C 16.3 °C 1009 hPa SSW 12.9 km/h 24.1 km/h 90 % 0 mm 257 W/m2
12:59 18.1 °C 16.3 °C 1009 hPa SSW 12.9 km/h 24.1 km/h 89 % 0 mm 225 W/m2
13:04 18.2 °C 16.2 °C 1009 hPa SSW 12.9 km/h 24.1 km/h 88 % 0 mm 237 W/m2
13:09 18.3 °C 16.3 °C 1008.7 hPa SSW 11.3 km/h 24.1 km/h 88 % 0 mm 213 W/m2
13:14 18.3 °C 16.1 °C 1008.7 hPa SSW 9.7 km/h 17.7 km/h 87 % 0 mm 158 W/m2
13:19 18.4 °C 16.2 °C 1008.7 hPa SW 9.7 km/h 16.1 km/h 87 % 0 mm 118 W/m2
13:24 18.4 °C 15.4 °C 1009 hPa WSW 14.5 km/h 32.2 km/h 83 % 0 mm 69 W/m2
13:29 18.5 °C 15.2 °C 1009 hPa WSW 17.7 km/h 32.2 km/h 81 % 0 mm 77 W/m2
13:34 18.5 °C 15.2 °C 1009 hPa WSW 16.1 km/h 32.2 km/h 81 % 0 mm 120 W/m2
13:39 18.4 °C 15.3 °C 1009 hPa West 14.5 km/h 29 km/h 82 % 0 mm 116 W/m2
13:44 18.4 °C 15.4 °C 1009 hPa West 14.5 km/h 20.9 km/h 83 % 0 mm 183 W/m2
13:49 18.4 °C 15.4 °C 1009 hPa West 14.5 km/h 22.5 km/h 83 % 0 mm 171 W/m2
13:54 18.5 °C 15.7 °C 1009 hPa West 14.5 km/h 24.1 km/h 84 % 0 mm 241 W/m2
13:59 18.6 °C 15.8 °C 1009 hPa West 11.3 km/h 24.1 km/h 84 % 0 mm 227 W/m2
14:04 18.8 °C 15.4 °C 1009 hPa WSW 14.5 km/h 30.6 km/h 81 % 0 mm 281 W/m2
14:09 18.9 °C 15.2 °C 1009 hPa WSW 19.3 km/h 35.4 km/h 79 % 0 mm 345 W/m2
14:14 19 °C 15.3 °C 1009 hPa WSW 19.3 km/h 35.4 km/h 79 % 0 mm 322 W/m2
14:19 19.2 °C 15.3 °C 1009 hPa WSW 20.9 km/h 40.2 km/h 78 % 0 mm 318 W/m2
14:24 19.3 °C 15.2 °C 1009 hPa WSW 20.9 km/h 40.2 km/h 77 % 0 mm 455 W/m2
14:29 19.4 °C 15.4 °C 1009 hPa WSW 20.9 km/h 35.4 km/h 78 % 0 mm 269 W/m2
14:34 19.4 °C 15.4 °C 1009 hPa West 19.3 km/h 35.4 km/h 78 % 0 mm 216 W/m2
14:39 19.4 °C 15.3 °C 1009 hPa West 16.1 km/h 25.7 km/h 77 % 0 mm 151 W/m2
14:44 19.4 °C 15.4 °C 1009 hPa West 16.1 km/h 30.6 km/h 78 % 0 mm 204 W/m2
14:49 19.3 °C 15.4 °C 1009 hPa West 16.1 km/h 30.6 km/h 78 % 0 mm 134 W/m2
14:50 19.3 °C 15.4 °C 1009 hPa WNW 16.1 km/h 30.6 km/h 78 % 0 mm 139 W/m2
14:55 19.2 °C 15.1 °C 1009 hPa West 16.1 km/h 25.7 km/h 77 % 0 mm 199 W/m2
15:00 19.2 °C 15.3 °C 1009 hPa WNW 16.1 km/h 32.2 km/h 78 % 0 mm 130 W/m2
15:05 19.1 °C 15.2 °C 1009 hPa WNW 17.7 km/h 32.2 km/h 78 % 0 mm 153 W/m2
15:11 19 °C 15.3 °C 1009 hPa West 17.7 km/h 30.6 km/h 79 % 0 mm 174 W/m2
15:16 18.9 °C 15.2 °C 1009 hPa West 16.1 km/h 32.2 km/h 79 % 0 mm 199 W/m2
15:21 18.9 °C 15.2 °C 1009 hPa West 17.7 km/h 32.2 km/h 79 % 0 mm 163 W/m2
15:26 18.9 °C 15.2 °C 1009 hPa West 17.7 km/h 35.4 km/h 79 % 0 mm 169 W/m2
15:31 18.8 °C 15.3 °C 1009.4 hPa West 17.7 km/h 35.4 km/h 80 % 0 mm 165 W/m2
15:36 18.7 °C 15 °C 1009.4 hPa West 17.7 km/h 37 km/h 79 % 0 mm 192 W/m2
15:41 18.6 °C 14.9 °C 1009.4 hPa West 17.7 km/h 37 km/h 79 % 0 mm 167 W/m2
15:46 18.5 °C 15 °C 1009.4 hPa West 14.5 km/h 22.5 km/h 80 % 0 mm 165 W/m2
15:51 18.4 °C 15.1 °C 1009.4 hPa West 11.3 km/h 22.5 km/h 81 % 0 mm 113 W/m2
15:56 18.4 °C 15.1 °C 1009.4 hPa West 11.3 km/h 24.1 km/h 81 % 0 mm 134 W/m2
16:01 18.4 °C 15.1 °C 1009.4 hPa West 12.9 km/h 24.1 km/h 81 % 0 mm 163 W/m2
16:06 18.3 °C 15 °C 1009.4 hPa WNW 12.9 km/h 24.1 km/h 81 % 0 mm 181 W/m2
16:11 18.2 °C 14.7 °C 1009.7 hPa WNW 16.1 km/h 30.6 km/h 80 % 0 mm 200 W/m2
16:16 18.1 °C 14.6 °C 1009.7 hPa West 17.7 km/h 30.6 km/h 80 % 0 mm 221 W/m2
16:21 18.1 °C 14.8 °C 1009.7 hPa West 16.1 km/h 30.6 km/h 81 % 0 mm 197 W/m2
16:26 18 °C 14.5 °C 1009.7 hPa West 14.5 km/h 30.6 km/h 80 % 0 mm 163 W/m2
16:31 18.1 °C 14.8 °C 1009.7 hPa WNW 14.5 km/h 29 km/h 81 % 0 mm 178 W/m2
16:36 18.1 °C 14.6 °C 1009.7 hPa WNW 14.5 km/h 29 km/h 80 % 0 mm 130 W/m2
16:41 17.9 °C 14.4 °C 1009.7 hPa WNW 16.1 km/h 29 km/h 80 % 0 mm 186 W/m2
16:46 17.8 °C 14.3 °C 1009.7 hPa WNW 14.5 km/h 24.1 km/h 80 % 0 mm 202 W/m2
16:51 17.8 °C 14.3 °C 1009.7 hPa West 12.9 km/h 19.3 km/h 80 % 0 mm 167 W/m2
16:56 17.7 °C 14 °C 1010 hPa WNW 14.5 km/h 29 km/h 79 % 0 mm 204 W/m2
17:01 17.7 °C 14 °C 1010 hPa WNW 16.1 km/h 29 km/h 79 % 0 mm 190 W/m2
17:06 17.7 °C 13.8 °C 1010 hPa WNW 16.1 km/h 25.7 km/h 78 % 0 mm 149 W/m2
17:11 17.7 °C 13.8 °C 1010 hPa WNW 14.5 km/h 25.7 km/h 78 % 0 mm 121 W/m2
17:16 17.6 °C 13.7 °C 1010 hPa WNW 12.9 km/h 29 km/h 78 % 0 mm 98 W/m2
17:21 17.6 °C 13.7 °C 1010 hPa WNW 14.5 km/h 29 km/h 78 % 0 mm 105 W/m2
17:26 17.4 °C 13.5 °C 1010.4 hPa WNW 14.5 km/h 24.1 km/h 78 % 0 mm 84 W/m2
17:29 17.4 °C 13.5 °C 1010.4 hPa WNW 14.5 km/h 30.6 km/h 78 % 0 mm 84 W/m2
17:34 17.3 °C 13.6 °C 1010.4 hPa WNW 14.5 km/h 30.6 km/h 79 % 0 mm 114 W/m2
17:39 17.1 °C 13.4 °C 1010.4 hPa WNW 14.5 km/h 24.1 km/h 79 % 0 mm 148 W/m2
17:44 17.1 °C 13.4 °C 1010.4 hPa WNW 14.5 km/h 24.1 km/h 79 % 0 mm 149 W/m2
17:49 16.9 °C 13.2 °C 1010.7 hPa WNW 14.5 km/h 30.6 km/h 79 % 0 mm 105 W/m2
17:54 16.8 °C 13.1 °C 1010.7 hPa WNW 16.1 km/h 30.6 km/h 79 % 0 mm 193 W/m2
17:59 16.8 °C 12.9 °C 1010.7 hPa WNW 14.5 km/h 25.7 km/h 78 % 0 mm 153 W/m2
18:04 16.9 °C 13.1 °C 1010.7 hPa West 14.5 km/h 22.5 km/h 78 % 0 mm 93 W/m2
18:09 16.8 °C 12.9 °C 1010.7 hPa West 12.9 km/h 24.1 km/h 78 % 0 mm 56 W/m2
18:14 16.7 °C 12.8 °C 1010.7 hPa WNW 14.5 km/h 25.7 km/h 78 % 0 mm 58 W/m2
18:19 16.5 °C 12.8 °C 1010.7 hPa WNW 17.7 km/h 30.6 km/h 79 % 0 mm 58 W/m2
18:24 16.4 °C 12.9 °C 1010.7 hPa WNW 17.7 km/h 30.6 km/h 80 % 0 mm 181 W/m2
18:29 16.4 °C 12.9 °C 1010.7 hPa WNW 16.1 km/h 25.7 km/h 80 % 0 mm 98 W/m2
18:34 16.4 °C 13.1 °C 1010.7 hPa WNW 16.1 km/h 24.1 km/h 81 % 0 mm 76 W/m2
18:39 16.3 °C 12.8 °C 1010.7 hPa West 14.5 km/h 30.6 km/h 80 % 0 mm 77 W/m2
18:44 16.2 °C 12.7 °C 1010.7 hPa West 16.1 km/h 30.6 km/h 80 % 0 mm 63 W/m2
18:49 16 °C 12.6 °C 1010.7 hPa WNW 17.7 km/h 25.7 km/h 80 % 0 mm 56 W/m2
18:54 15.9 °C 12.4 °C 1011.1 hPa West 17.7 km/h 30.6 km/h 80 % 0 mm 54 W/m2
18:59 15.9 °C 12.4 °C 1011.1 hPa West 14.5 km/h 30.6 km/h 80 % 0 mm 65 W/m2
19:04 15.8 °C 12.3 °C 1011.1 hPa WNW 16.1 km/h 29 km/h 80 % 0 mm 67 W/m2
19:09 15.8 °C 12.6 °C 1011.1 hPa WNW 17.7 km/h 29 km/h 81 % 0 mm 76 W/m2
19:14 15.8 °C 12.6 °C 1011.1 hPa WNW 14.5 km/h 29 km/h 81 % 0 mm 47 W/m2
19:19 15.8 °C 12.6 °C 1011.1 hPa WNW 14.5 km/h 22.5 km/h 81 % 0 mm 26 W/m2
19:24 15.7 °C 12.4 °C 1011.4 hPa WNW 14.5 km/h 30.6 km/h 81 % 0 mm 23 W/m2
19:29 15.6 °C 12.3 °C 1011.4 hPa WNW 14.5 km/h 30.6 km/h 81 % 0 mm 21 W/m2
19:34 15.5 °C 12.3 °C 1011.4 hPa WNW 14.5 km/h 24.1 km/h 81 % 0 mm 16 W/m2
19:39 15.4 °C 12.2 °C 1011.4 hPa WNW 14.5 km/h 24.1 km/h 81 % 0 mm 11 W/m2
19:44 15.3 °C 12.2 °C 1011.7 hPa WNW 12.9 km/h 22.5 km/h 82 % 0 mm 7 W/m2
19:49 15.2 °C 12.2 °C 1011.7 hPa WNW 12.9 km/h 22.5 km/h 82 % 0 mm 5 W/m2
19:54 15.1 °C 12.2 °C 1011.7 hPa WNW 14.5 km/h 22.5 km/h 83 % 0 mm 0 W/m2
19:59 14.9 °C 12.1 °C 1011.7 hPa WNW 14.5 km/h 22.5 km/h 83 % 0 mm 0 W/m2
20:04 14.8 °C 11.9 °C 1012.1 hPa WNW 12.9 km/h 22.5 km/h 83 % 0 mm 0 W/m2
20:09 14.7 °C 12 °C 1012.1 hPa WNW 11.3 km/h 17.7 km/h 84 % 0 mm 0 W/m2
20:11 14.7 °C 12 °C 1012.1 hPa WNW 9.7 km/h 16.1 km/h 84 % 0 mm 0 W/m2
20:16 14.6 °C 11.9 °C 1012.1 hPa West 8 km/h 14.5 km/h 84 % 0 mm 0 W/m2
20:21 14.5 °C 11.8 °C 1012.1 hPa West 6.4 km/h 11.3 km/h 84 % 0 mm 0 W/m2
20:26 14.4 °C 11.9 °C 1012.4 hPa West 4.8 km/h 9.7 km/h 85 % 0 mm 0 W/m2
20:31 14.2 °C 11.7 °C 1012.4 hPa West 4.8 km/h 9.7 km/h 85 % 0 mm 0 W/m2
20:36 14.1 °C 11.6 °C 1012.4 hPa WNW 3.2 km/h 9.7 km/h 85 % 0 mm 0 W/m2
20:38 14.1 °C 11.6 °C 1012.4 hPa WNW 3.2 km/h 9.7 km/h 85 % 0 mm 0 W/m2
20:43 13.9 °C 11.6 °C 1012.8 hPa WNW 3.2 km/h 9.7 km/h 86 % 0 mm 0 W/m2
20:48 13.8 °C 11.5 °C 1012.8 hPa WNW 3.2 km/h 9.7 km/h 86 % 0 mm 0 W/m2
20:53 13.7 °C 11.6 °C 1012.8 hPa West 1.6 km/h 8 km/h 87 % 0 mm 0 W/m2
20:58 13.6 °C 11.5 °C 1012.8 hPa West 1.6 km/h 9.7 km/h 87 % 0 mm 0 W/m2
21:03 13.4 °C 11.3 °C 1012.8 hPa WNW 3.2 km/h 9.7 km/h 87 % 0 mm 0 W/m2
21:08 13.3 °C 11.2 °C 1012.8 hPa WNW 6.4 km/h 11.3 km/h 87 % 0 mm 0 W/m2
21:13 13.3 °C 11.3 °C 1012.8 hPa WNW 6.4 km/h 11.3 km/h 88 % 0 mm 0 W/m2
21:18 13.2 °C 11.3 °C 1012.8 hPa WNW 3.2 km/h 9.7 km/h 88 % 0 mm 0 W/m2
21:23 13.1 °C 11.2 °C 1012.8 hPa Calm   6.4 km/h 88 % 0 mm 0 W/m2
21:28 12.9 °C 10.9 °C 1012.8 hPa Calm   3.2 km/h 88 % 0 mm 0 W/m2
21:33 12.8 °C 10.8 °C 1013.1 hPa Calm   8 km/h 88 % 0 mm 0 W/m2
21:38 12.7 °C 10.9 °C 1012.8 hPa Calm   8 km/h 89 % 0 mm 0 W/m2
21:43 12.6 °C 10.8 °C 1013.1 hPa Calm     89 % 0 mm 0 W/m2
21:48 12.5 °C 10.7 °C 1013.1 hPa Calm     89 % 0 mm 0 W/m2
21:53 12.4 °C 10.6 °C 1013.1 hPa Calm     89 % 0 mm 0 W/m2
21:58 12.3 °C 10.7 °C 1013.1 hPa Calm     90 % 0 mm 0 W/m2
22:03 12.2 °C 10.6 °C 1013.1 hPa Calm     90 % 0 mm 0 W/m2
22:08 12.1 °C 10.5 °C 1013.1 hPa Calm     90 % 0 mm 0 W/m2
22:13 12.1 °C 10.5 °C 1013.1 hPa Calm     90 % 0 mm 0 W/m2
22:18 12 °C 10.6 °C 1013.1 hPa Calm     91 % 0 mm 0 W/m2
22:23 11.9 °C 10.3 °C 1013.1 hPa Calm     90 % 0 mm 0 W/m2
22:28 11.8 °C 10.2 °C 1013.1 hPa Calm     90 % 0 mm 0 W/m2
22:33 11.7 °C 10.3 °C 1013.1 hPa Calm     91 % 0 mm 0 W/m2
22:38 11.6 °C 10.2 °C 1013.4 hPa Calm     91 % 0 mm 0 W/m2
22:43 11.5 °C 10.1 °C 1013.4 hPa Calm     91 % 0 mm 0 W/m2
22:48 11.4 °C 10 °C 1013.4 hPa Calm     91 % 0 mm 0 W/m2
22:53 11.3 °C 10.1 °C 1013.4 hPa Calm     92 % 0 mm 0 W/m2
22:58 11.3 °C 10.1 °C 1013.4 hPa Calm     92 % 0 mm 0 W/m2
23:03 11.3 °C 10.1 °C 1013.4 hPa Calm     92 % 0 mm 0 W/m2
23:08 11.2 °C 9.9 °C 1013.4 hPa Calm   1.6 km/h 92 % 0 mm 0 W/m2
23:13 11.2 °C 9.9 °C 1013.4 hPa Calm   6.4 km/h 92 % 0 mm 0 W/m2
23:18 11.1 °C 9.8 °C 1013.4 hPa WNW 1.6 km/h 6.4 km/h 92 % 0 mm 0 W/m2
23:23 11 °C 9.7 °C 1013.4 hPa Calm   3.2 km/h 92 % 0 mm 0 W/m2
23:28 11 °C 9.9 °C 1013.4 hPa Calm     93 % 0 mm 0 W/m2
23:33 11.1 °C 10 °C 1013.4 hPa Calm     93 % 0 mm 0 W/m2
23:38 11 °C 9.9 °C 1013.4 hPa Calm   4.8 km/h 93 % 0 mm 0 W/m2
23:43 10.9 °C 9.8 °C 1013.4 hPa WNW 3.2 km/h 6.4 km/h 93 % 0 mm 0 W/m2
23:48 10.9 °C 9.8 °C 1013.8 hPa WNW 3.2 km/h 6.4 km/h 93 % 0 mm 0 W/m2
23:53 11 °C 9.9 °C 1013.4 hPa WNW 3.2 km/h 6.4 km/h 93 % 0 mm 0 W/m2
23:58 11.1 °C 10.2 °C 1013.8 hPa WNW 1.6 km/h 6.4 km/h 94 % 0 mm 0 W/m2
Delerius-Weather
Compliments of Weather Underground - 2.25 mb

Data updates at regular intervals.